Raleigh Durham International Airport
KRDU : now visible

Airfield :











YOU CAN JOIN US ON...

 
LOGIN :

Register | Disclaimer

   EN    FR    IT 

 









Legend :    VFR   Marginal VFR   IFR   Intensive IFR   Very Intensive IFR
Visi :
Ceiling :
>= 8 km
>= 3000ft
5 to 8 km
1000 to 3000 ft
1500m to 5 km
500 to 1000 ft
800 to 1500m
200 to 500 ft
< 800m
< 200 ft
Symbols :   Thunderstorms  Fog  Heavy snow  Heavy precipitations  Wind > 20 kt






- Airport Elevation : 435 ft
- IATA code : RDU


KRDU - Raleigh Durham International

CURRENT METAR :
  • 071451Z 23005KT 10SM SCT017 BKN035 BKN150 27/23 A3011 RMK AO2 SLP192 T02670228 50008

EXPIRED METARs :
  • 071351Z 23005KT 10SM BKN013 BKN045 OVC150 26/23 A3011 RMK AO2 SLP192 T02560228
  • 071251Z 21003KT 10SM SCT008 SCT045 BKN250 25/23 A3009 RMK AO2 SLP185 T02500228

TAF KRDU
Valid from the 07 at 12:00 until the 08 at 12:00 UTC


071120Z 0712/0812 18005KT P6SM SCT003 BKN015
TEMPO 0712/0714 5SM BR BKN003
FM071400 21006KT P6SM SCT015 BKN035
FM072000 18006KT P6SM VCTS BKN050CB
FM080100 VRB03KT P6SM BKN070
KZDC FIR / North America



MET'MAP, your aeronautical weather chart ! - Copyright ORBIFLY December 2007 - Disclaimer

ORBIFLY MET'MAP TEAM :

Programming & Development : Alexandra Zaïnal
Concept & original design : Baudouin d'Aumeries
Assistance for programming : Marc-Olivier Méhu
Technical & hardware support : Manuel Goepfert

Contact : metmap@orbifly.com




SOURCES & CREDITS :

   NOAA       Earth
Advisory